Time;durP1;ratioP1;P1;durP2;ratioP2;P2;SDS_P1;SDS_P2;PMS_P1;PMS_P2;Temp;Humidity;BMP_temperature;BMP_pressure;BME280_temperature;BME280_humidity;BME280_pressure;Samples;Min_cycle;Max_cycle;Signal;HPM_P1;HPM_P2
2022/10/10 00:01:54;;;;;;;;;;;9.10;99.90;;;;;;5108527;27;1327;-53
2022/10/10 00:04:32;;;;;;;;;;;9.10;99.90;;;;;;5108226;27;1342;-55
2022/10/10 00:07:10;;;;;;;;;;;9.10;99.90;;;;;;5107085;27;1509;-53
2022/10/10 00:09:49;;;;;;;;;;;9.00;99.90;;;;;;5106623;27;1761;-52
2022/10/10 00:12:27;;;;;;;;;;;9.00;99.90;;;;;;5108178;27;1316;-56
2022/10/10 00:15:06;;;;;;;;;;;9.00;99.90;;;;;;5108366;27;1346;-53
2022/10/10 00:17:45;;;;;;;;;;;9.00;99.90;;;;;;5107864;27;1273;-53
2022/10/10 00:20:23;;;;;;;;;;;8.90;99.90;;;;;;5101561;27;1392;-54
2022/10/10 00:23:03;;;;;;;;;;;8.90;99.90;;;;;;5107789;27;1380;-53
2022/10/10 00:25:41;;;;;;;;;;;8.90;99.90;;;;;;5107445;27;1398;-53
2022/10/10 00:28:19;;;;;;;;;;;8.90;99.90;;;;;;5107468;27;1293;-56
2022/10/10 00:30:58;;;;;;;;;;;8.80;99.90;;;;;;5098461;27;1322;-53
2022/10/10 00:33:37;;;;;;;;;;;8.80;99.90;;;;;;5107729;27;1341;-53
2022/10/10 00:36:16;;;;;;;;;;;8.80;99.90;;;;;;5087334;27;1297;-57
2022/10/10 00:38:54;;;;;;;;;;;8.70;99.90;;;;;;5106768;27;1312;-53
2022/10/10 00:41:32;;;;;;;;;;;8.70;99.90;;;;;;5094218;27;1373;-53
2022/10/10 00:44:11;;;;;;;;;;;8.70;99.90;;;;;;5107096;27;1627;-55
2022/10/10 00:46:50;;;;;;;;;;;8.70;99.90;;;;;;5119305;27;1220;-56
2022/10/10 00:49:30;;;;;;;;;;;8.70;99.90;;;;;;5087018;27;1288;-54
2022/10/10 00:52:11;;;;;;;;;;;8.60;99.90;;;;;;5087281;27;1846;-54
2022/10/10 00:54:50;;;;;;;;;;;8.60;99.90;;;;;;5107932;27;1402;-54
2022/10/10 00:57:28;;;;;;;;;;;8.60;99.90;;;;;;5086654;27;1726;-53
2022/10/10 01:00:07;;;;;;;;;;;8.60;99.90;;;;;;5107132;27;1413;-53
2022/10/10 01:02:46;;;;;;;;;;;8.60;99.90;;;;;;5107558;27;1301;-53
2022/10/10 01:05:24;;;;;;;;;;;8.60;99.90;;;;;;5107151;27;1568;-53
2022/10/10 01:08:04;;;;;;;;;;;8.50;99.90;;;;;;5107399;27;1743;-56
2022/10/10 01:10:48;;;;;;;;;;;8.50;99.90;;;;;;5100281;27;1580;-54
2022/10/10 01:13:30;;;;;;;;;;;8.50;99.90;;;;;;5107206;27;2464;-54
2022/10/10 01:16:14;;;;;;;;;;;8.40;99.90;;;;;;5107422;27;1386;-53
2022/10/10 01:18:56;;;;;;;;;;;8.40;99.90;;;;;;5086431;27;1238;-54
2022/10/10 01:21:37;;;;;;;;;;;8.30;99.90;;;;;;5051647;27;1390;-54
2022/10/10 01:24:33;;;;;;;;;;;8.30;99.90;;;;;;5060403;27;2462;-53
2022/10/10 01:27:21;;;;;;;;;;;8.20;99.90;;;;;;5083399;27;1638;-53
2022/10/10 01:30:01;;;;;;;;;;;8.10;99.90;;;;;;5104742;27;1691;-54
2022/10/10 01:32:43;;;;;;;;;;;8.00;99.90;;;;;;5086401;27;1305;-53
2022/10/10 01:35:31;;;;;;;;;;;8.00;99.90;;;;;;5107614;27;1437;-54
2022/10/10 01:38:13;;;;;;;;;;;7.90;99.90;;;;;;5100978;27;1395;-53
2022/10/10 01:40:53;;;;;;;;;;;7.90;99.90;;;;;;5077841;27;1400;-54
2022/10/10 01:43:35;;;;;;;;;;;7.90;99.90;;;;;;5104003;27;1546;-53
2022/10/10 01:46:16;;;;;;;;;;;7.80;99.90;;;;;;5104466;27;1401;-53
2022/10/10 01:48:56;;;;;;;;;;;7.70;99.90;;;;;;5104176;27;1771;-55
2022/10/10 01:51:50;;;;;;;;;;;7.60;99.90;;;;;;5089977;27;1627;-54
2022/10/10 01:54:33;;;;;;;;;;;7.60;99.90;;;;;;5101598;27;1575;-53
2022/10/10 01:57:16;;;;;;;;;;;7.50;99.90;;;;;;5103730;27;1847;-53
2022/10/10 02:00:06;;;;;;;;;;;7.40;99.90;;;;;;5105562;27;1933;-54
2022/10/10 02:02:49;;;;;;;;;;;7.40;99.90;;;;;;5104443;27;1786;-54
2022/10/10 02:05:32;;;;;;;;;;;7.40;99.90;;;;;;5105968;27;1691;-54
2022/10/10 02:08:12;;;;;;;;;;;7.40;99.90;;;;;;5103414;27;1602;-54
2022/10/10 02:10:53;;;;;;;;;;;7.30;99.90;;;;;;5097304;27;1298;-52
2022/10/10 02:13:36;;;;;;;;;;;7.30;99.90;;;;;;5066101;27;1171;-54
2022/10/10 02:16:18;;;;;;;;;;;7.40;99.90;;;;;;5107397;27;1293;-55
2022/10/10 02:18:58;;;;;;;;;;;7.30;99.90;;;;;;5107859;27;1414;-54
2022/10/10 02:21:37;;;;;;;;;;;7.40;99.90;;;;;;5092404;27;1304;-53
2022/10/10 02:24:15;;;;;;;;;;;7.30;99.90;;;;;;5108493;27;1732;-53
2022/10/10 02:26:56;;;;;;;;;;;7.30;99.90;;;;;;5108219;27;1217;-53
2022/10/10 02:29:36;;;;;;;;;;;7.40;99.90;;;;;;5108407;27;1249;-54
2022/10/10 02:32:18;;;;;;;;;;;7.30;99.90;;;;;;5067725;27;1253;-54
2022/10/10 02:34:58;;;;;;;;;;;7.40;99.90;;;;;;5108893;27;1301;-53
2022/10/10 02:37:37;;;;;;;;;;;7.40;99.90;;;;;;5106668;27;1410;-55
2022/10/10 02:40:19;;;;;;;;;;;7.40;99.90;;;;;;5102178;27;1388;-53
2022/10/10 02:42:59;;;;;;;;;;;7.40;99.90;;;;;;5107141;27;1485;-54
2022/10/10 02:45:38;;;;;;;;;;;7.30;99.90;;;;;;5105423;27;1304;-55
2022/10/10 02:48:17;;;;;;;;;;;7.30;99.90;;;;;;5091705;27;1964;-53
2022/10/10 02:50:55;;;;;;;;;;;7.20;99.90;;;;;;5085774;27;1540;-53
2022/10/10 02:53:34;;;;;;;;;;;7.20;99.90;;;;;;5087464;27;1479;-53
2022/10/10 02:56:13;;;;;;;;;;;7.20;99.90;;;;;;5105073;27;1646;-54
2022/10/10 02:58:51;;;;;;;;;;;7.10;99.90;;;;;;5105458;27;1622;-53
2022/10/10 03:01:30;;;;;;;;;;;7.10;99.90;;;;;;5091711;27;1325;-53
2022/10/10 03:04:08;;;;;;;;;;;7.00;99.90;;;;;;5107279;27;1696;-53
2022/10/10 03:06:46;;;;;;;;;;;7.00;99.90;;;;;;5086621;27;1390;-54
2022/10/10 03:09:24;;;;;;;;;;;7.00;99.90;;;;;;5106491;27;1181;-53
2022/10/10 03:12:03;;;;;;;;;;;7.00;99.90;;;;;;5088117;27;1725;-54
2022/10/10 03:14:41;;;;;;;;;;;6.90;99.90;;;;;;5108122;27;1205;-55
2022/10/10 03:17:19;;;;;;;;;;;6.80;99.90;;;;;;5103828;27;1560;-55
2022/10/10 03:19:57;;;;;;;;;;;6.70;99.90;;;;;;5104575;27;1646;-55
2022/10/10 03:22:35;;;;;;;;;;;6.70;99.90;;;;;;5084638;27;1301;-54
2022/10/10 03:25:14;;;;;;;;;;;6.60;99.90;;;;;;5108136;27;1291;-54
2022/10/10 03:27:52;;;;;;;;;;;6.50;99.90;;;;;;5107107;27;1214;-54
2022/10/10 03:30:30;;;;;;;;;;;6.50;99.90;;;;;;5107263;27;1635;-56
2022/10/10 03:33:08;;;;;;;;;;;6.40;99.90;;;;;;5107914;27;1212;-56
2022/10/10 03:35:46;;;;;;;;;;;6.30;99.90;;;;;;5107139;27;1377;-53
2022/10/10 03:38:25;;;;;;;;;;;6.30;99.90;;;;;;5090007;27;1649;-53
2022/10/10 03:41:03;;;;;;;;;;;6.30;99.90;;;;;;5105088;27;1610;-54
2022/10/10 03:43:43;;;;;;;;;;;6.30;99.90;;;;;;5107192;27;1458;-54
2022/10/10 03:46:21;;;;;;;;;;;6.30;99.90;;;;;;5104270;27;1408;-54
2022/10/10 03:48:59;;;;;;;;;;;6.30;99.90;;;;;;5107000;27;1616;-56
2022/10/10 03:51:38;;;;;;;;;;;6.10;99.90;;;;;;5072277;27;1365;-54
2022/10/10 03:54:17;;;;;;;;;;;6.00;99.90;;;;;;5107957;27;1507;-54
2022/10/10 03:56:56;;;;;;;;;;;5.90;99.90;;;;;;5104403;27;1511;-54
2022/10/10 03:59:34;;;;;;;;;;;5.90;99.90;;;;;;5105907;27;1712;-56
2022/10/10 04:02:12;;;;;;;;;;;5.80;99.90;;;;;;5103385;27;1754;-54
2022/10/10 04:04:50;;;;;;;;;;;5.80;99.90;;;;;;5080260;27;1640;-54
2022/10/10 04:07:28;;;;;;;;;;;5.80;99.90;;;;;;5095327;27;1301;-54
2022/10/10 04:10:07;;;;;;;;;;;5.70;99.90;;;;;;5107267;27;1465;-54
2022/10/10 04:12:46;;;;;;;;;;;5.70;99.90;;;;;;5107796;27;1563;-54
2022/10/10 04:15:25;;;;;;;;;;;5.70;99.90;;;;;;5085561;27;1265;-54
2022/10/10 04:18:03;;;;;;;;;;;5.60;99.90;;;;;;5080426;27;1662;-55
2022/10/10 04:20:41;;;;;;;;;;;5.50;99.90;;;;;;5097857;27;1612;-54
2022/10/10 04:23:19;;;;;;;;;;;5.40;99.90;;;;;;5107177;27;1317;-54
2022/10/10 04:25:58;;;;;;;;;;;5.30;99.90;;;;;;5106331;27;1567;-54
2022/10/10 04:28:36;;;;;;;;;;;5.30;99.90;;;;;;5107686;27;1792;-55
2022/10/10 04:31:14;;;;;;;;;;;5.20;99.90;;;;;;5107790;27;1293;-55
2022/10/10 04:33:52;;;;;;;;;;;5.20;99.90;;;;;;5106981;27;1307;-55
2022/10/10 04:36:31;;;;;;;;;;;5.10;99.90;;;;;;5063369;27;1623;-54
2022/10/10 04:39:09;;;;;;;;;;;5.20;99.90;;;;;;5046296;27;1402;-54
2022/10/10 04:41:48;;;;;;;;;;;5.20;99.90;;;;;;5082480;27;1452;-54
2022/10/10 04:44:27;;;;;;;;;;;5.30;99.90;;;;;;5096526;27;1478;-54
2022/10/10 04:47:07;;;;;;;;;;;5.20;99.90;;;;;;5105068;27;1382;-54
2022/10/10 04:49:45;;;;;;;;;;;5.10;99.90;;;;;;5105173;27;1659;-54
2022/10/10 04:52:24;;;;;;;;;;;5.00;99.90;;;;;;5107258;27;1257;-55
2022/10/10 04:55:03;;;;;;;;;;;5.00;99.90;;;;;;5107421;27;1323;-56
2022/10/10 04:57:41;;;;;;;;;;;4.90;99.90;;;;;;5106926;27;1515;-54
2022/10/10 05:00:20;;;;;;;;;;;4.90;99.90;;;;;;5106996;27;1306;-54
2022/10/10 05:02:58;;;;;;;;;;;5.00;99.90;;;;;;5107485;27;1300;-55
2022/10/10 05:05:36;;;;;;;;;;;5.00;99.90;;;;;;5106204;27;1386;-54
2022/10/10 05:08:14;;;;;;;;;;;5.00;99.90;;;;;;5122638;27;1606;-54
2022/10/10 05:10:53;;;;;;;;;;;4.90;99.90;;;;;;5075579;27;1599;-55
2022/10/10 05:13:32;;;;;;;;;;;4.80;99.90;;;;;;5106329;27;1730;-54
2022/10/10 05:16:10;;;;;;;;;;;4.80;99.90;;;;;;5096731;27;1640;-54
2022/10/10 05:18:49;;;;;;;;;;;4.80;99.90;;;;;;5106571;27;1240;-55
2022/10/10 05:21:27;;;;;;;;;;;4.90;99.90;;;;;;5107785;27;1636;-54
2022/10/10 05:24:06;;;;;;;;;;;4.80;99.90;;;;;;5113279;27;1367;-55
2022/10/10 05:26:45;;;;;;;;;;;4.90;99.90;;;;;;5106707;27;1394;-54
2022/10/10 05:29:23;;;;;;;;;;;4.90;99.90;;;;;;5127156;27;1404;-54
2022/10/10 05:32:01;;;;;;;;;;;4.90;99.90;;;;;;5107368;27;1652;-54
2022/10/10 05:34:40;;;;;;;;;;;5.00;99.90;;;;;;5106540;27;1232;-54
2022/10/10 05:37:18;;;;;;;;;;;5.00;99.90;;;;;;5102283;27;1535;-56
2022/10/10 05:39:56;;;;;;;;;;;4.90;99.90;;;;;;5105284;27;1357;-54
2022/10/10 05:42:34;;;;;;;;;;;5.00;99.90;;;;;;5102494;27;1732;-54
2022/10/10 05:45:12;;;;;;;;;;;5.10;99.90;;;;;;5104096;27;1272;-55
2022/10/10 05:47:51;;;;;;;;;;;5.20;99.90;;;;;;5098541;27;1522;-54
2022/10/10 05:50:32;;;;;;;;;;;5.30;99.90;;;;;;5101224;27;1322;-54
2022/10/10 05:53:11;;;;;;;;;;;5.40;99.90;;;;;;5104535;27;2076;-54
2022/10/10 05:55:49;;;;;;;;;;;5.60;99.90;;;;;;5104778;27;1718;-54
2022/10/10 05:58:27;;;;;;;;;;;5.70;99.90;;;;;;5096458;27;1204;-54
2022/10/10 06:01:06;;;;;;;;;;;5.80;99.90;;;;;;5094401;27;1514;-54
2022/10/10 06:03:51;;;;;;;;;;;5.90;99.90;;;;;;5104331;27;1645;-54
2022/10/10 06:06:30;;;;;;;;;;;6.00;99.90;;;;;;5101686;27;1688;-54
2022/10/10 06:09:08;;;;;;;;;;;6.10;99.90;;;;;;5105761;27;1405;-54
2022/10/10 06:11:48;;;;;;;;;;;6.30;99.90;;;;;;5088710;27;2525;-54
2022/10/10 06:14:26;;;;;;;;;;;6.40;99.90;;;;;;5106271;27;1643;-53
2022/10/10 06:17:04;;;;;;;;;;;6.60;99.90;;;;;;5105793;27;1358;-54
2022/10/10 06:19:42;;;;;;;;;;;6.70;99.90;;;;;;5098615;27;1769;-54
2022/10/10 06:22:20;;;;;;;;;;;6.90;99.90;;;;;;5059573;27;1711;-54
2022/10/10 06:24:59;;;;;;;;;;;7.10;99.90;;;;;;5084769;27;1302;-54
2022/10/10 06:27:37;;;;;;;;;;;7.40;99.90;;;;;;5104626;27;1457;-54
2022/10/10 06:30:15;;;;;;;;;;;7.60;99.90;;;;;;5100721;27;1466;-56
2022/10/10 06:32:56;;;;;;;;;;;7.70;99.90;;;;;;5106157;27;1647;-54
2022/10/10 06:35:37;;;;;;;;;;;7.80;99.90;;;;;;5102251;27;1601;-54
2022/10/10 06:38:17;;;;;;;;;;;7.90;99.90;;;;;;5104904;27;2495;-54
2022/10/10 06:41:00;;;;;;;;;;;8.00;99.90;;;;;;5105029;27;1539;-53
2022/10/10 06:43:40;;;;;;;;;;;8.00;99.90;;;;;;5107534;27;1320;-54
2022/10/10 06:46:19;;;;;;;;;;;8.10;99.90;;;;;;5098445;27;1563;-54
2022/10/10 06:48:57;;;;;;;;;;;8.30;99.90;;;;;;5104302;27;1304;-56
2022/10/10 06:51:36;;;;;;;;;;;8.40;99.90;;;;;;5090109;27;1666;-54
2022/10/10 06:54:15;;;;;;;;;;;8.50;99.90;;;;;;5106483;27;1295;-53
2022/10/10 06:56:53;;;;;;;;;;;8.60;99.90;;;;;;5105496;27;1469;-54
2022/10/10 06:59:32;;;;;;;;;;;8.70;99.90;;;;;;5096795;27;1441;-54
2022/10/10 07:02:11;;;;;;;;;;;8.90;99.90;;;;;;5105674;27;1346;-54
2022/10/10 07:04:50;;;;;;;;;;;9.00;99.90;;;;;;5103952;27;1567;-54
2022/10/10 07:07:28;;;;;;;;;;;9.00;99.90;;;;;;5104273;27;1205;-53
2022/10/10 07:10:07;;;;;;;;;;;9.10;99.90;;;;;;5102744;27;1292;-53
2022/10/10 07:12:46;;;;;;;;;;;9.10;99.90;;;;;;5105717;27;1533;-56
2022/10/10 07:15:24;;;;;;;;;;;9.20;99.90;;;;;;5106429;27;1393;-54
2022/10/10 07:18:02;;;;;;;;;;;9.20;99.90;;;;;;5083995;27;1375;-54
2022/10/10 07:20:41;;;;;;;;;;;9.30;99.90;;;;;;5105231;27;1401;-54
2022/10/10 07:23:19;;;;;;;;;;;9.50;99.90;;;;;;5106837;27;1304;-53
2022/10/10 07:26:00;;;;;;;;;;;9.80;99.90;;;;;;5101104;27;1627;-54
2022/10/10 07:28:39;;;;;;;;;;;10.00;99.90;;;;;;5104819;27;1228;-54
2022/10/10 07:31:17;;;;;;;;;;;10.20;99.90;;;;;;5105375;27;1682;-54
2022/10/10 07:33:55;;;;;;;;;;;10.40;99.90;;;;;;5105907;27;1402;-53
2022/10/10 07:36:33;;;;;;;;;;;10.80;99.90;;;;;;5104442;27;1441;-53
2022/10/10 07:39:12;;;;;;;;;;;11.00;99.90;;;;;;5105043;27;1233;-54
2022/10/10 07:41:50;;;;;;;;;;;11.20;99.90;;;;;;5089090;27;1309;-54
2022/10/10 07:44:30;;;;;;;;;;;11.40;99.90;;;;;;5104227;27;1212;-55
2022/10/10 07:47:08;;;;;;;;;;;11.50;99.90;;;;;;5105358;27;1301;-53
2022/10/10 07:49:46;;;;;;;;;;;11.60;99.90;;;;;;5104850;27;1640;-53
2022/10/10 07:52:24;;;;;;;;;;;11.80;99.90;;;;;;5085298;27;1181;-53
2022/10/10 07:55:03;;;;;;;;;;;12.10;99.90;;;;;;5083207;27;1995;-53
2022/10/10 07:57:41;;;;;;;;;;;12.10;99.90;;;;;;5066349;27;1505;-53
2022/10/10 08:00:19;;;;;;;;;;;12.30;99.90;;;;;;5083217;27;2400;-53
2022/10/10 08:02:57;;;;;;;;;;;12.30;99.90;;;;;;5101500;27;1966;-53
2022/10/10 08:05:38;;;;;;;;;;;12.50;99.90;;;;;;5084239;27;1494;-53
2022/10/10 08:08:17;;;;;;;;;;;12.40;99.90;;;;;;5104891;27;1402;-55
2022/10/10 08:10:56;;;;;;;;;;;12.50;99.90;;;;;;5092611;27;1503;-53
2022/10/10 08:13:35;;;;;;;;;;;12.60;99.90;;;;;;5105806;27;1511;-55
2022/10/10 08:16:15;;;;;;;;;;;12.60;99.90;;;;;;5098223;27;1621;-53
2022/10/10 08:18:53;;;;;;;;;;;12.70;99.90;;;;;;5048034;27;1300;-53
2022/10/10 08:21:31;;;;;;;;;;;12.80;99.90;;;;;;5107290;27;1815;-53
2022/10/10 08:24:09;;;;;;;;;;;13.00;99.90;;;;;;5071819;27;1631;-53
2022/10/10 08:26:49;;;;;;;;;;;13.10;99.90;;;;;;5081402;27;1622;-53
2022/10/10 08:29:27;;;;;;;;;;;13.20;99.90;;;;;;5098878;27;1782;-53
2022/10/10 08:32:06;;;;;;;;;;;13.20;99.90;;;;;;5105768;27;1401;-53
2022/10/10 08:34:44;;;;;;;;;;;13.00;99.90;;;;;;5105908;27;1204;-53
2022/10/10 08:37:22;;;;;;;;;;;12.80;99.90;;;;;;5065077;27;1624;-53
2022/10/10 08:40:00;;;;;;;;;;;12.50;99.90;;;;;;5103692;27;1372;-54
2022/10/10 08:42:41;;;;;;;;;;;12.10;99.90;;;;;;5084861;27;1477;-54
2022/10/10 08:45:21;;;;;;;;;;;11.90;99.90;;;;;;5103219;27;1341;-55
2022/10/10 08:48:01;;;;;;;;;;;11.60;99.90;;;;;;5105656;27;1304;-53
2022/10/10 08:50:42;;;;;;;;;;;11.40;99.90;;;;;;5064904;27;1351;-53
2022/10/10 08:53:24;;;;;;;;;;;11.30;99.90;;;;;;5106590;27;1195;-54
2022/10/10 08:56:05;;;;;;;;;;;11.20;99.90;;;;;;5105796;27;1304;-53
2022/10/10 08:58:46;;;;;;;;;;;11.10;99.90;;;;;;5105518;27;1295;-53
2022/10/10 09:01:28;;;;;;;;;;;11.30;99.90;;;;;;5092051;27;1515;-54
2022/10/10 09:04:13;;;;;;;;;;;11.50;99.90;;;;;;5105515;27;1316;-54
2022/10/10 09:06:58;;;;;;;;;;;11.60;99.90;;;;;;5105010;27;1952;-54
2022/10/10 09:09:41;;;;;;;;;;;11.70;99.90;;;;;;5104715;27;1382;-53
2022/10/10 09:12:23;;;;;;;;;;;12.00;99.90;;;;;;5105648;27;1321;-52
2022/10/10 09:15:10;;;;;;;;;;;12.20;99.90;;;;;;5106343;27;1467;-53
2022/10/10 09:17:55;;;;;;;;;;;12.40;99.90;;;;;;5106899;27;1486;-53
2022/10/10 09:20:39;;;;;;;;;;;12.60;99.90;;;;;;5100335;27;1301;-53
2022/10/10 09:23:21;;;;;;;;;;;12.80;99.90;;;;;;5106604;27;1445;-53
2022/10/10 09:26:02;;;;;;;;;;;12.90;99.90;;;;;;5103647;27;1245;-53
2022/10/10 09:28:44;;;;;;;;;;;13.10;99.90;;;;;;5106245;27;1336;-53
2022/10/10 09:31:24;;;;;;;;;;;13.20;99.90;;;;;;5107304;27;1490;-55
2022/10/10 09:34:07;;;;;;;;;;;13.30;99.90;;;;;;5064812;27;1663;-53
2022/10/10 09:36:46;;;;;;;;;;;13.30;99.90;;;;;;5101257;27;1783;-55
2022/10/10 09:39:32;;;;;;;;;;;13.30;99.90;;;;;;5105021;27;1515;-53
2022/10/10 09:42:12;;;;;;;;;;;13.30;99.90;;;;;;5071098;22;1848;-56
2022/10/10 09:44:51;;;;;;;;;;;13.30;99.90;;;;;;5085013;27;1670;-56
2022/10/10 09:47:29;;;;;;;;;;;13.30;99.90;;;;;;5094356;27;1263;-56
2022/10/10 09:50:11;;;;;;;;;;;13.40;99.90;;;;;;5105963;27;1551;-56
2022/10/10 09:52:51;;;;;;;;;;;13.50;99.90;;;;;;5088074;27;1191;-56
2022/10/10 09:55:33;;;;;;;;;;;13.60;99.90;;;;;;5101135;27;1819;-56
2022/10/10 09:58:14;;;;;;;;;;;13.70;99.90;;;;;;5105008;27;1385;-56
2022/10/10 10:00:53;;;;;;;;;;;13.80;99.90;;;;;;5105064;27;1656;-56
2022/10/10 10:03:33;;;;;;;;;;;13.90;99.90;;;;;;5106342;27;1237;-56
2022/10/10 10:06:13;;;;;;;;;;;14.20;99.90;;;;;;5106121;27;1284;-56
2022/10/10 10:08:53;;;;;;;;;;;14.40;99.90;;;;;;5105791;27;1366;-55
2022/10/10 10:11:33;;;;;;;;;;;14.50;99.90;;;;;;5099568;27;1385;-56
2022/10/10 10:14:24;;;;;;;;;;;14.60;99.90;;;;;;5103970;27;1575;-55
2022/10/10 10:17:07;;;;;;;;;;;14.60;99.90;;;;;;5083152;27;1534;-56
2022/10/10 10:19:46;;;;;;;;;;;14.50;99.90;;;;;;5084459;27;1720;-56
2022/10/10 10:22:30;;;;;;;;;;;14.60;99.90;;;;;;5090376;27;1321;-56
2022/10/10 10:25:30;;;;;;;;;;;14.50;99.90;;;;;;5100739;27;1635;-55
2022/10/10 10:28:18;;;;;;;;;;;14.60;99.90;;;;;;5090550;27;1978;-55
2022/10/10 10:30:58;;;;;;;;;;;14.80;99.90;;;;;;5081905;27;1419;-56
2022/10/10 10:33:44;;;;;;;;;;;15.20;99.90;;;;;;5105414;27;1616;-56
2022/10/10 10:36:29;;;;;;;;;;;15.60;99.90;;;;;;5104680;27;1216;-56
2022/10/10 10:39:14;;;;;;;;;;;15.80;99.90;;;;;;5105530;27;1578;-56
2022/10/10 10:41:55;;;;;;;;;;;15.90;99.90;;;;;;5094797;27;1382;-55
2022/10/10 10:44:39;;;;;;;;;;;16.00;99.90;;;;;;5082366;27;1816;-56
2022/10/10 10:47:26;;;;;;;;;;;15.80;99.90;;;;;;5103875;27;1800;-55
2022/10/10 10:50:16;;;;;;;;;;;15.60;99.90;;;;;;5105988;27;1451;-56
2022/10/10 10:53:04;;;;;;;;;;;15.60;99.90;;;;;;5105394;27;1710;-56
2022/10/10 10:55:46;;;;;;;;;;;15.40;99.90;;;;;;5101580;27;1625;-56
2022/10/10 10:58:37;;;;;;;;;;;15.20;99.90;;;;;;5089352;27;1525;-57
2022/10/10 11:01:22;;;;;;;;;;;15.10;99.90;;;;;;5106216;27;1664;-58
2022/10/10 11:04:02;;;;;;;;;;;15.10;99.90;;;;;;5106521;27;1755;-55
2022/10/10 11:06:46;;;;;;;;;;;15.20;99.90;;;;;;5104319;27;1759;-57
2022/10/10 11:09:26;;;;;;;;;;;15.40;99.90;;;;;;5084691;27;1398;-56
2022/10/10 11:12:13;;;;;;;;;;;15.80;99.90;;;;;;5072420;27;1766;-54
2022/10/10 11:14:58;;;;;;;;;;;16.00;99.90;;;;;;5106893;27;1647;-56
2022/10/10 11:17:39;;;;;;;;;;;16.10;99.90;;;;;;5119066;27;1248;-56
2022/10/10 11:20:20;;;;;;;;;;;16.30;99.90;;;;;;5108277;27;1609;-56
2022/10/10 11:23:02;;;;;;;;;;;16.40;99.90;;;;;;5102931;27;1257;-56
2022/10/10 11:25:43;;;;;;;;;;;16.50;99.90;;;;;;5104609;27;1635;-57
2022/10/10 11:28:24;;;;;;;;;;;16.60;99.90;;;;;;5086620;27;1363;-56
2022/10/10 11:31:05;;;;;;;;;;;16.80;99.90;;;;;;5107636;27;1289;-56
2022/10/10 11:33:46;;;;;;;;;;;17.10;99.90;;;;;;5107375;27;1215;-56
2022/10/10 11:36:25;;;;;;;;;;;17.50;99.90;;;;;;5087567;27;1390;-56
2022/10/10 11:39:11;;;;;;;;;;;17.80;99.90;;;;;;5107935;27;1483;-56
2022/10/10 11:41:51;;;;;;;;;;;18.10;99.90;;;;;;5107337;27;1578;-56
2022/10/10 11:44:32;;;;;;;;;;;18.40;99.90;;;;;;5105359;27;1628;-57
2022/10/10 11:47:13;;;;;;;;;;;18.50;99.90;;;;;;5077612;27;1618;-57
2022/10/10 11:49:55;;;;;;;;;;;18.70;99.90;;;;;;5091508;27;1375;-57
2022/10/10 11:52:39;;;;;;;;;;;18.80;99.90;;;;;;5104996;27;1435;-55
2022/10/10 11:55:21;;;;;;;;;;;18.90;99.90;;;;;;5107838;27;1218;-57
2022/10/10 11:58:14;;;;;;;;;;;18.90;99.90;;;;;;5107883;27;1251;-55
2022/10/10 12:00:56;;;;;;;;;;;18.90;99.90;;;;;;5120599;27;1839;-57
2022/10/10 12:03:35;;;;;;;;;;;18.90;99.90;;;;;;5083056;27;1654;-57
2022/10/10 12:06:17;;;;;;;;;;;18.90;99.90;;;;;;5104000;27;2107;-57
2022/10/10 12:08:59;;;;;;;;;;;18.80;99.90;;;;;;5107225;27;1250;-57
2022/10/10 12:11:40;;;;;;;;;;;18.70;99.90;;;;;;5106565;27;1631;-57
2022/10/10 12:14:20;;;;;;;;;;;18.70;99.90;;;;;;5108559;27;1238;-57
2022/10/10 12:16:59;;;;;;;;;;;18.80;99.90;;;;;;5087628;27;1402;-57
2022/10/10 12:19:38;;;;;;;;;;;19.00;99.90;;;;;;5107794;27;1210;-57
2022/10/10 12:22:23;;;;;;;;;;;19.10;99.90;;;;;;5095301;27;1466;-57
2022/10/10 12:25:21;;;;;;;;;;;19.00;99.90;;;;;;5108532;27;1397;-57
2022/10/10 12:28:05;;;;;;;;;;;19.10;99.90;;;;;;5108310;27;1854;-57
2022/10/10 12:31:09;;;;;;;;;;;19.30;99.90;;;;;;5103641;27;1677;-57
2022/10/10 12:34:01;;;;;;;;;;;19.30;99.90;;;;;;5107420;27;2128;-57
2022/10/10 12:36:53;;;;;;;;;;;19.30;99.90;;;;;;5090650;27;1280;-58
2022/10/10 12:39:34;;;;;;;;;;;19.50;99.90;;;;;;5101610;27;2235;-57
2022/10/10 12:42:29;;;;;;;;;;;19.50;99.90;;;;;;5102525;27;1615;-57
2022/10/10 12:45:40;;;;;;;;;;;19.40;99.90;;;;;;5096430;27;1288;-57
2022/10/10 12:48:20;;;;;;;;;;;19.20;99.90;;;;;;5098140;27;1694;-57
2022/10/10 12:50:59;;;;;;;;;;;19.20;99.90;;;;;;5086201;27;1795;-57
2022/10/10 12:53:38;;;;;;;;;;;19.20;99.90;;;;;;5107729;27;1476;-57
2022/10/10 12:56:16;;;;;;;;;;;19.10;99.90;;;;;;5108370;27;1329;-58
2022/10/10 12:58:54;;;;;;;;;;;19.00;99.90;;;;;;5108149;27;1350;-58
2022/10/10 13:01:34;;;;;;;;;;;19.20;99.90;;;;;;5108234;27;1334;-59
2022/10/10 13:04:15;;;;;;;;;;;19.40;99.90;;;;;;5109138;27;1292;-58
2022/10/10 13:06:56;;;;;;;;;;;19.60;99.90;;;;;;5109283;27;1312;-58
2022/10/10 13:09:34;;;;;;;;;;;19.60;99.90;;;;;;5109146;27;1622;-57
2022/10/10 13:12:21;;;;;;;;;;;19.60;99.90;;;;;;5096535;27;1398;-57
2022/10/10 13:15:00;;;;;;;;;;;19.70;99.90;;;;;;5126835;27;1390;-58
2022/10/10 13:17:40;;;;;;;;;;;20.00;99.90;;;;;;5109630;27;1477;-58
2022/10/10 13:20:31;;;;;;;;;;;19.80;99.90;;;;;;5109639;27;1381;-58
2022/10/10 13:23:14;;;;;;;;;;;19.50;99.90;;;;;;5086767;27;1848;-58
2022/10/10 13:25:52;;;;;;;;;;;19.10;99.90;;;;;;5106026;27;1979;-58
2022/10/10 13:28:30;;;;;;;;;;;18.80;99.90;;;;;;5107773;27;2512;-59
2022/10/10 13:31:12;;;;;;;;;;;18.70;99.90;;;;;;5105604;27;1953;-58
2022/10/10 13:33:56;;;;;;;;;;;18.60;99.90;;;;;;5109289;27;1446;-58
2022/10/10 13:36:36;;;;;;;;;;;18.40;99.90;;;;;;5109001;27;1386;-58
2022/10/10 13:39:16;;;;;;;;;;;18.30;99.90;;;;;;5109068;27;1381;-57
2022/10/10 13:41:54;;;;;;;;;;;18.10;99.90;;;;;;5078530;27;1547;-58
2022/10/10 13:44:33;;;;;;;;;;;17.90;99.90;;;;;;5109325;27;1662;-57
2022/10/10 13:47:29;;;;;;;;;;;17.70;99.90;;;;;;5088648;27;1184;-58
2022/10/10 13:50:17;;;;;;;;;;;17.70;99.90;;;;;;5067818;27;1173;-59
2022/10/10 13:53:09;;;;;;;;;;;17.90;99.90;;;;;;5101307;27;1951;-58
2022/10/10 13:55:49;;;;;;;;;;;18.20;99.90;;;;;;5107492;27;1964;-56
2022/10/10 13:58:28;;;;;;;;;;;18.40;99.90;;;;;;5107997;27;1919;-56
2022/10/10 14:01:17;;;;;;;;;;;18.60;99.90;;;;;;5105729;27;1666;-57
2022/10/10 14:03:58;;;;;;;;;;;18.80;99.90;;;;;;5109022;27;1340;-57
2022/10/10 14:06:38;;;;;;;;;;;19.00;99.90;;;;;;5108904;27;2059;-57
2022/10/10 14:09:19;;;;;;;;;;;19.10;99.90;;;;;;5109399;27;1278;-58
2022/10/10 14:11:59;;;;;;;;;;;19.20;99.90;;;;;;5108551;27;1295;-56
2022/10/10 14:14:43;;;;;;;;;;;19.20;99.90;;;;;;5105574;27;2255;-57
2022/10/10 14:17:22;;;;;;;;;;;19.00;99.90;;;;;;5063803;27;2115;-58
2022/10/10 14:20:00;;;;;;;;;;;18.70;99.90;;;;;;5107932;27;1586;-57
2022/10/10 14:22:50;;;;;;;;;;;18.30;99.90;;;;;;5089959;27;1346;-58
2022/10/10 14:25:28;;;;;;;;;;;18.00;99.90;;;;;;5088283;27;1588;-57
2022/10/10 14:28:07;;;;;;;;;;;17.80;99.90;;;;;;5108551;27;1398;-58
2022/10/10 14:30:46;;;;;;;;;;;17.60;99.90;;;;;;5108407;27;1308;-57
2022/10/10 14:33:26;;;;;;;;;;;17.40;99.90;;;;;;5084314;27;1922;-57
2022/10/10 14:36:06;;;;;;;;;;;17.30;99.90;;;;;;5108109;27;1562;-58
2022/10/10 14:38:45;;;;;;;;;;;17.20;99.90;;;;;;5107927;27;1305;-57
2022/10/10 14:41:24;;;;;;;;;;;17.10;99.90;;;;;;5082688;27;1591;-58
2022/10/10 14:44:02;;;;;;;;;;;17.00;99.90;;;;;;5109088;27;1304;-57
2022/10/10 14:46:40;;;;;;;;;;;16.90;99.90;;;;;;5109160;27;1734;-58
2022/10/10 14:49:20;;;;;;;;;;;16.70;99.90;;;;;;5104694;27;1942;-59
2022/10/10 14:51:58;;;;;;;;;;;16.60;99.90;;;;;;5107686;27;1294;-57
2022/10/10 14:54:37;;;;;;;;;;;16.60;99.90;;;;;;5087990;27;2740;-57
2022/10/10 14:57:15;;;;;;;;;;;16.60;99.90;;;;;;5108273;27;1393;-57
2022/10/10 14:59:54;;;;;;;;;;;16.60;99.90;;;;;;5108238;27;1354;-57
2022/10/10 15:02:33;;;;;;;;;;;16.60;99.90;;;;;;5093731;27;1859;-57
2022/10/10 15:05:11;;;;;;;;;;;16.60;99.90;;;;;;5109561;27;1292;-57
2022/10/10 15:07:52;;;;;;;;;;;16.60;99.90;;;;;;5109544;27;1236;-57
2022/10/10 15:10:31;;;;;;;;;;;16.60;99.90;;;;;;5109422;27;1261;-57
2022/10/10 15:13:09;;;;;;;;;;;16.40;99.90;;;;;;5089554;27;1384;-58
2022/10/10 15:15:47;;;;;;;;;;;16.30;99.90;;;;;;5110330;27;1485;-57
2022/10/10 15:18:27;;;;;;;;;;;16.20;99.90;;;;;;5089533;27;1390;-57
2022/10/10 15:21:09;;;;;;;;;;;16.10;99.90;;;;;;5106532;27;1451;-57
2022/10/10 15:23:48;;;;;;;;;;;16.00;99.90;;;;;;5106834;27;1992;-57
2022/10/10 15:26:26;;;;;;;;;;;15.90;99.90;;;;;;5067206;27;1728;-57
2022/10/10 15:29:05;;;;;;;;;;;15.80;99.90;;;;;;5109876;27;1750;-57
2022/10/10 15:31:43;;;;;;;;;;;15.60;99.90;;;;;;5101257;27;1338;-57
2022/10/10 15:34:21;;;;;;;;;;;15.50;99.90;;;;;;5089375;27;1297;-57
2022/10/10 15:37:01;;;;;;;;;;;15.40;99.90;;;;;;5107332;27;1961;-57
2022/10/10 15:39:40;;;;;;;;;;;15.30;99.90;;;;;;5136798;27;1504;-57
2022/10/10 15:42:19;;;;;;;;;;;15.20;99.90;;;;;;5095612;27;1472;-56
2022/10/10 15:44:59;;;;;;;;;;;15.00;99.90;;;;;;5105646;27;2001;-57
2022/10/10 15:47:39;;;;;;;;;;;14.90;99.90;;;;;;5102584;27;1915;-56
2022/10/10 15:50:19;;;;;;;;;;;14.90;99.90;;;;;;5087766;27;1551;-56
2022/10/10 15:52:57;;;;;;;;;;;14.90;99.90;;;;;;5106415;27;1520;-56
2022/10/10 15:55:40;;;;;;;;;;;15.00;99.90;;;;;;5109220;27;1394;-56